Airfield :
LOGIN :

Register | Disclaimer

   EN    FR    IT 

 










Legend :    VFR   Marginal VFR   IFR   Intensive IFR   Very Intensive IFR
Visi :
Ceiling :
>= 8 km
>= 3000ft
5 to 8 km
1000 to 3000 ft
1500m to 5 km
500 to 1000 ft
800 to 1500m
200 to 500 ft
< 800m
< 200 ft
Symbols :   Thunderstorms  Fog  Heavy snow  Heavy precipitations  Wind > 20 kt
SIGMETs :     Misc.  Thunderstorms  Icing  Turbulence  Mountain Waves  Volcanic Ashes






- Airport Elevation : 12 ft
- IATA code : NCE


LFMN - Nice

CURRENT METAR :
  • 192200Z 00000KT 9999 SCT010 BKN230 23/21 Q1015 NOSIG

EXPIRED METARs :
  • 192130Z 22003KT 9999 SCT010 SCT150 BKN230 23/21 Q1015 NOSIG
  • 192100Z 16004KT 9999 FEW010 SCT150 BKN160 23/21 Q1015 NOSIG
  • 192030Z 12006KT 9999 FEW015 SCT150 BKN160 23/21 Q1014 NOSIG
  • 192000Z 08005KT 9999 FEW011 BKN160 23/21 Q1014 NOSIG

TAF TAF LFMN
Valid from the 19 at 21:00 until the 21 at 03:00 UTC


192000Z 1921/2103 VRB05KT 9999 FEW015 BKN150
TEMPO 1921/1924 08010KT
TEMPO 2000/2004 34010KT
PROB40
TEMPO 1922/2002 BKN010
BECMG 2005/2007 09012KT
TEMPO 2006/2009 09022KT
TEMPO 2012/2015 FEW080CB
PROB40
TEMPO 2013/2014 VRB15KT TSRA SCT060CB
BECMG 2018/2020 VRB05KT
PROB40
TEMPO 2021/2103 BKN014
ATIS : +33 4 93 17 21 16



MET'MAP, your aeronautical weather chart ! - Copyright ORBIFLY December 2007 - Disclaimer

ORBIFLY MET'MAP TEAM :

Programming & Development : Alexandra Zaïnal
Concept & original design : Baudouin d'Aumeries
Assistance for programming : Marc-Olivier Méhu
Technical & hardware support : Manuel Goepfert

Contact : metmap@orbifly.com




SOURCES & CREDITS :

   NOAA